createdAt,value
2017-09-19T00:00:26.555Z,1004.8
2017-09-19T00:01:28.174Z,1004.7
2017-09-19T00:02:29.690Z,1004.8
2017-09-19T00:03:31.155Z,1004.8
2017-09-19T00:04:32.796Z,1004.8
2017-09-19T00:05:34.244Z,1004.8
2017-09-19T00:06:35.883Z,1004.8
2017-09-19T00:07:37.352Z,1004.8
2017-09-19T00:08:38.975Z,1004.8
2017-09-19T00:09:40.445Z,1004.8
2017-09-19T00:10:42.069Z,1004.8
2017-09-19T00:11:43.521Z,1004.8
2017-09-19T00:12:45.113Z,1004.8
2017-09-19T00:13:46.636Z,1004.8
2017-09-19T00:14:48.239Z,1004.8
2017-09-19T00:15:49.764Z,1004.8
2017-09-19T00:16:51.309Z,1004.8
2017-09-19T00:17:52.798Z,1004.8
2017-09-19T00:18:54.404Z,1004.8
2017-09-19T00:19:55.841Z,1004.8
2017-09-19T00:20:57.411Z,1004.8
2017-09-19T00:21:58.847Z,1004.8
2017-09-19T00:23:00.487Z,1004.8
2017-09-19T00:24:01.953Z,1004.7
2017-09-19T00:25:03.529Z,1004.7
2017-09-19T00:26:05.068Z,1004.7
2017-09-19T00:27:06.645Z,1004.7
2017-09-19T00:28:08.115Z,1004.7
2017-09-19T00:29:09.691Z,1004.8
2017-09-19T00:30:11.155Z,1004.7
2017-09-19T00:31:12.685Z,1004.8
2017-09-19T00:32:14.156Z,1004.8
2017-09-19T00:33:15.752Z,1004.8
2017-09-19T00:34:17.244Z,1004.8
2017-09-19T00:35:18.885Z,1004.8
2017-09-19T00:36:20.456Z,1004.8
2017-09-19T00:37:22.070Z,1004.8
2017-09-19T00:38:23.550Z,1004.8
2017-09-19T00:39:26.163Z,1004.8
2017-09-19T00:40:27.664Z,1004.8
2017-09-19T00:41:29.264Z,1004.8
2017-09-19T00:42:30.742Z,1004.7
2017-09-19T00:43:32.322Z,1004.8
2017-09-19T00:44:33.823Z,1004.8
2017-09-19T00:45:35.408Z,1004.8
2017-09-19T00:46:36.872Z,1004.7
2017-09-19T00:47:38.548Z,1004.7
2017-09-19T00:48:40.015Z,1004.7
2017-09-19T00:49:41.581Z,1004.7
2017-09-19T00:50:43.030Z,1004.7
2017-09-19T00:51:44.658Z,1004.7
2017-09-19T00:52:46.105Z,1004.7
2017-09-19T00:53:47.572Z,1004.6
2017-09-19T00:54:49.061Z,1004.6
2017-09-19T00:55:50.721Z,1004.6
2017-09-19T00:56:52.211Z,1004.6
2017-09-19T00:57:53.765Z,1004.6
2017-09-19T00:58:55.214Z,1004.7
2017-09-19T00:59:56.829Z,1004.7
2017-09-19T01:00:58.321Z,1004.7
2017-09-19T01:01:59.894Z,1004.7
2017-09-19T01:03:01.382Z,1004.7
2017-09-19T01:04:02.994Z,1004.7
2017-09-19T01:05:04.452Z,1004.6
2017-09-19T01:06:06.044Z,1004.6
2017-09-19T01:07:07.498Z,1004.7
2017-09-19T01:08:09.172Z,1004.6
2017-09-19T01:09:10.630Z,1004.6
2017-09-19T01:10:12.253Z,1004.6
2017-09-19T01:11:13.717Z,1004.6
2017-09-19T01:12:15.326Z,1004.6
2017-09-19T01:13:16.804Z,1004.6
2017-09-19T01:14:18.304Z,1004.6
2017-09-19T01:15:20.176Z,1004.6
2017-09-19T01:16:21.770Z,1004.6
2017-09-19T01:17:23.283Z,1004.5
2017-09-19T01:18:24.882Z,1004.5
2017-09-19T01:19:26.316Z,1004.5
2017-09-19T01:20:27.906Z,1004.5
2017-09-19T01:21:29.374Z,1004.5
2017-09-19T01:22:30.915Z,1004.5
2017-09-19T01:23:32.399Z,1004.4
2017-09-19T01:24:34.045Z,1004.5
2017-09-19T01:25:35.506Z,1004.4
2017-09-19T01:26:37.205Z,1004.5
2017-09-19T01:27:38.721Z,1004.4
2017-09-19T01:28:40.300Z,1004.5
2017-09-19T01:29:41.793Z,1004.5
2017-09-19T01:30:43.405Z,1004.5
2017-09-19T01:31:44.876Z,1004.4
2017-09-19T01:32:46.551Z,1004.4
2017-09-19T01:33:48.063Z,1004.4
2017-09-19T01:34:49.729Z,1004.4
2017-09-19T01:35:51.270Z,1004.4
2017-09-19T01:36:52.801Z,1004.4
2017-09-19T01:37:54.358Z,1004.4
2017-09-19T01:38:55.952Z,1004.4
2017-09-19T01:39:57.450Z,1004.4
2017-09-19T01:40:59.037Z,1004.4
2017-09-19T01:42:00.508Z,1004.4
2017-09-19T01:43:02.115Z,1004.3
2017-09-19T01:44:03.613Z,1004.4
2017-09-19T01:45:05.202Z,1004.4
2017-09-19T01:46:06.679Z,1004.4
2017-09-19T01:47:08.324Z,1004.4
2017-09-19T01:48:09.813Z,1004.4
2017-09-19T01:49:11.415Z,1004.4
2017-09-19T01:50:12.910Z,1004.4
2017-09-19T01:51:14.602Z,1004.4
2017-09-19T01:52:16.111Z,1004.4
2017-09-19T01:53:17.746Z,1004.4
2017-09-19T01:54:19.292Z,1004.4
2017-09-19T01:55:20.942Z,1004.4
2017-09-19T01:56:22.473Z,1004.4
2017-09-19T01:57:28.834Z,1004.3
2017-09-19T01:58:30.341Z,1004.4
2017-09-19T01:59:33.025Z,1004.4
2017-09-19T02:00:34.575Z,1004.4
2017-09-19T02:01:36.135Z,1004.4
2017-09-19T02:02:37.643Z,1004.4
2017-09-19T02:03:39.275Z,1004.4
2017-09-19T02:04:40.730Z,1004.3
2017-09-19T02:05:42.345Z,1004.4
2017-09-19T02:06:43.909Z,1004.4
2017-09-19T02:07:45.459Z,1004.3
2017-09-19T02:08:46.991Z,1004.3
2017-09-19T02:09:48.566Z,1004.4
2017-09-19T02:10:50.077Z,1004.3
2017-09-19T02:11:51.626Z,1004.3
2017-09-19T02:12:53.206Z,1004.4
2017-09-19T02:13:54.752Z,1004.4
2017-09-19T02:14:56.268Z,1004.3
2017-09-19T02:15:57.889Z,1004.3
2017-09-19T02:16:59.398Z,1004.3
2017-09-19T02:18:00.994Z,1004.3
2017-09-19T02:19:02.459Z,1004.3
2017-09-19T02:20:04.117Z,1004.3
2017-09-19T02:21:05.559Z,1004.3
2017-09-19T02:22:07.135Z,1004.3
2017-09-19T02:23:08.591Z,1004.2
2017-09-19T02:24:10.154Z,1004.3
2017-09-19T02:25:11.595Z,1004.3
2017-09-19T02:26:13.090Z,1004.3
2017-09-19T02:27:14.555Z,1004.2
2017-09-19T02:28:16.108Z,1004.2
2017-09-19T02:29:17.734Z,1004.3
2017-09-19T02:30:19.328Z,1004.2
2017-09-19T02:31:20.870Z,1004.3
2017-09-19T02:32:22.489Z,1004.3
2017-09-19T02:33:24.042Z,1004.2
2017-09-19T02:34:25.706Z,1004.2
2017-09-19T02:35:27.189Z,1004.2
2017-09-19T02:36:28.748Z,1004.2
2017-09-19T02:37:30.231Z,1004.2
2017-09-19T02:38:31.860Z,1004.1
2017-09-19T02:39:33.350Z,1004.1
2017-09-19T02:40:34.930Z,1004.1
2017-09-19T02:41:36.421Z,1004.1
2017-09-19T02:42:38.045Z,1004.1
2017-09-19T02:43:39.516Z,1004.2
2017-09-19T02:44:41.130Z,1004.2
2017-09-19T02:45:42.608Z,1004.2
2017-09-19T02:46:44.247Z,1004.2
2017-09-19T02:47:45.701Z,1004.2
2017-09-19T02:48:47.302Z,1004.2
2017-09-19T02:49:48.768Z,1004.2
2017-09-19T02:50:50.427Z,1004.1
2017-09-19T02:51:51.960Z,1004.1
2017-09-19T02:52:53.582Z,1004.2
2017-09-19T02:53:55.090Z,1004.2
2017-09-19T02:54:56.753Z,1004.2
2017-09-19T02:55:58.255Z,1004.1
2017-09-19T02:56:59.842Z,1004.1
2017-09-19T02:58:01.311Z,1004.1
2017-09-19T02:59:02.910Z,1004.1
2017-09-19T03:00:04.386Z,1004.2
2017-09-19T03:01:06.039Z,1004.2
2017-09-19T03:02:07.536Z,1004.2
2017-09-19T03:03:09.093Z,1004.2
2017-09-19T03:04:10.574Z,1004.2
2017-09-19T03:05:12.165Z,1004.2
2017-09-19T03:06:13.657Z,1004.2
2017-09-19T03:07:15.208Z,1004.2
2017-09-19T03:08:16.683Z,1004.2
2017-09-19T03:09:18.353Z,1004.2
2017-09-19T03:10:19.878Z,1004.2
2017-09-19T03:11:21.534Z,1004.2
2017-09-19T03:12:23.040Z,1004.1
2017-09-19T03:13:24.609Z,1004.2
2017-09-19T03:14:26.097Z,1004.1
2017-09-19T03:15:27.693Z,1004.2
2017-09-19T03:16:29.180Z,1004.2
2017-09-19T03:17:30.734Z,1004.2
2017-09-19T03:18:32.245Z,1004.2
2017-09-19T03:19:33.877Z,1004.2
2017-09-19T03:20:35.312Z,1004.2
2017-09-19T03:21:38.877Z,1004.2
2017-09-19T03:22:40.317Z,1004.2
2017-09-19T03:23:41.843Z,1004.2
2017-09-19T03:24:43.325Z,1004.1
2017-09-19T03:25:44.970Z,1004.1
2017-09-19T03:26:46.443Z,1004.2
2017-09-19T03:27:48.045Z,1004.2
2017-09-19T03:28:49.526Z,1004.2
2017-09-19T03:29:51.166Z,1004.2
2017-09-19T03:30:52.667Z,1004.2
2017-09-19T03:31:54.141Z,1004.2
2017-09-19T03:32:55.589Z,1004.2
2017-09-19T03:33:57.150Z,1004.2
2017-09-19T03:34:58.636Z,1004.2
2017-09-19T03:36:00.227Z,1004.2
2017-09-19T03:37:01.680Z,1004.2
2017-09-19T03:38:03.272Z,1004.2
2017-09-19T03:39:04.748Z,1004.2
2017-09-19T03:40:06.328Z,1004.2
2017-09-19T03:41:07.839Z,1004.2
2017-09-19T03:42:09.432Z,1004.2
2017-09-19T03:43:10.915Z,1004.2
2017-09-19T03:44:12.532Z,1004.2
2017-09-19T03:45:14.035Z,1004.2
2017-09-19T03:46:15.581Z,1004.2
2017-09-19T03:47:17.013Z,1004.2
2017-09-19T03:48:18.497Z,1004.2
2017-09-19T03:49:19.981Z,1004.2
2017-09-19T03:50:21.554Z,1004.2
2017-09-19T03:51:23.020Z,1004.2
2017-09-19T03:52:24.668Z,1004.2
2017-09-19T03:53:26.162Z,1004.2
2017-09-19T03:54:27.747Z,1004.2
2017-09-19T03:55:29.198Z,1004.2
2017-09-19T03:56:30.823Z,1004.2
2017-09-19T03:57:32.295Z,1004.2
2017-09-19T03:58:33.920Z,1004.2
2017-09-19T03:59:35.401Z,1004.2
2017-09-19T04:00:36.981Z,1004.2
2017-09-19T04:01:38.436Z,1004.2
2017-09-19T04:02:39.983Z,1004.2
2017-09-19T04:03:41.478Z,1004.3
2017-09-19T04:04:43.051Z,1004.3
2017-09-19T04:05:44.526Z,1004.3
2017-09-19T04:06:46.133Z,1004.3
2017-09-19T04:07:47.635Z,1004.3
2017-09-19T04:08:49.186Z,1004.3
2017-09-19T04:09:50.656Z,1004.3
2017-09-19T04:10:52.205Z,1004.3
2017-09-19T04:11:53.678Z,1004.3
2017-09-19T04:12:55.284Z,1004.3
2017-09-19T04:13:56.744Z,1004.3
2017-09-19T04:14:58.357Z,1004.3
2017-09-19T04:15:59.832Z,1004.2
2017-09-19T04:17:01.427Z,1004.3
2017-09-19T04:18:02.902Z,1004.3
2017-09-19T04:19:04.552Z,1004.3
2017-09-19T04:20:06.051Z,1004.3
2017-09-19T04:21:07.684Z,1004.3
2017-09-19T04:22:09.194Z,1004.3
2017-09-19T04:23:10.697Z,1004.3
2017-09-19T04:24:12.225Z,1004.3
2017-09-19T04:25:13.817Z,1004.3
2017-09-19T04:26:15.350Z,1004.3
2017-09-19T04:27:16.894Z,1004.3
2017-09-19T04:28:18.383Z,1004.3
2017-09-19T04:29:19.995Z,1004.3
2017-09-19T04:30:21.687Z,1004.3
2017-09-19T04:31:23.389Z,1004.4
2017-09-19T04:32:24.882Z,1004.3
2017-09-19T04:33:26.505Z,1004.4
2017-09-19T04:34:28.054Z,1004.4
2017-09-19T04:35:29.616Z,1004.4
2017-09-19T04:36:31.132Z,1004.4
2017-09-19T04:37:32.713Z,1004.4
2017-09-19T04:38:34.237Z,1004.4
2017-09-19T04:39:35.863Z,1004.4
2017-09-19T04:40:37.307Z,1004.4
2017-09-19T04:41:38.896Z,1004.4
2017-09-19T04:42:40.367Z,1004.4
2017-09-19T04:43:41.986Z,1004.4
2017-09-19T04:44:43.528Z,1004.4
2017-09-19T04:45:45.057Z,1004.4
2017-09-19T04:46:46.527Z,1004.4
2017-09-19T04:47:48.149Z,1004.4
2017-09-19T04:48:49.661Z,1004.5
2017-09-19T04:49:51.774Z,1004.4
2017-09-19T04:50:53.400Z,1004.5
2017-09-19T04:51:55.065Z,1004.5
2017-09-19T04:52:56.706Z,1004.5
2017-09-19T04:53:58.480Z,1004.5
2017-09-19T04:55:00.143Z,1004.5
2017-09-19T04:56:01.815Z,1004.5
2017-09-19T04:57:03.469Z,1004.5
2017-09-19T04:58:05.240Z,1004.5
2017-09-19T04:59:06.928Z,1004.5
2017-09-19T05:00:08.686Z,1004.5
2017-09-19T05:01:10.575Z,1004.5
2017-09-19T05:02:12.505Z,1004.5
2017-09-19T05:03:14.330Z,1004.6
2017-09-19T05:04:16.311Z,1004.6
2017-09-19T05:05:18.163Z,1004.5
2017-09-19T05:06:20.122Z,1004.5
2017-09-19T05:07:22.111Z,1004.5
2017-09-19T05:08:25.202Z,1004.6
2017-09-19T05:09:26.996Z,1004.6
2017-09-19T05:10:28.842Z,1004.5
2017-09-19T05:11:30.512Z,1004.5
2017-09-19T05:12:32.272Z,1004.5
2017-09-19T05:13:33.900Z,1004.5
2017-09-19T05:14:35.820Z,1004.5
2017-09-19T05:15:37.362Z,1004.5
2017-09-19T05:16:39.068Z,1004.6
2017-09-19T05:17:40.696Z,1004.5
2017-09-19T05:18:42.484Z,1004.5
2017-09-19T05:19:44.094Z,1004.5
2017-09-19T05:20:45.919Z,1004.6
2017-09-19T05:21:47.555Z,1004.6
2017-09-19T05:22:49.382Z,1004.5
2017-09-19T05:23:51.008Z,1004.6
2017-09-19T05:24:52.722Z,1004.6
2017-09-19T05:25:54.670Z,1004.5
2017-09-19T05:26:56.407Z,1004.5
2017-09-19T05:27:58.166Z,1004.6
2017-09-19T05:29:00.138Z,1004.6
2017-09-19T05:30:02.039Z,1004.6
2017-09-19T05:31:04.018Z,1004.6
2017-09-19T05:32:05.640Z,1004.6
2017-09-19T05:33:07.359Z,1004.6
2017-09-19T05:34:09.098Z,1004.6
2017-09-19T05:35:10.894Z,1004.6
2017-09-19T05:36:12.765Z,1004.6
2017-09-19T05:37:14.503Z,1004.6
2017-09-19T05:38:16.090Z,1004.7
2017-09-19T05:39:18.183Z,1004.7
2017-09-19T05:40:19.910Z,1004.7
2017-09-19T05:41:21.769Z,1004.7
2017-09-19T05:42:40.983Z,1004.7
2017-09-19T05:43:42.539Z,1004.7
2017-09-19T05:44:44.232Z,1004.7
2017-09-19T05:45:46.000Z,1004.7
2017-09-19T05:46:47.978Z,1004.7
2017-09-19T05:47:49.562Z,1004.8
2017-09-19T05:48:51.277Z,1004.8
2017-09-19T05:49:52.937Z,1004.8
2017-09-19T05:50:54.628Z,1004.8
2017-09-19T05:51:56.325Z,1004.8
2017-09-19T05:52:57.995Z,1004.8
2017-09-19T05:53:59.602Z,1004.8
2017-09-19T05:55:01.296Z,1004.8
2017-09-19T05:56:02.892Z,1004.8
2017-09-19T05:57:04.594Z,1004.8
2017-09-19T05:58:06.391Z,1004.8
2017-09-19T05:59:08.138Z,1004.9
2017-09-19T06:00:09.740Z,1004.8
2017-09-19T06:01:11.508Z,1004.8
2017-09-19T06:02:13.166Z,1004.8
2017-09-19T06:03:14.972Z,1004.8
2017-09-19T06:04:16.559Z,1004.8
2017-09-19T06:05:18.329Z,1004.8
2017-09-19T06:06:19.917Z,1004.8
2017-09-19T06:07:21.667Z,1004.8
2017-09-19T06:08:23.355Z,1004.8
2017-09-19T06:09:25.057Z,1004.8
2017-09-19T06:10:26.800Z,1004.8
2017-09-19T06:11:28.552Z,1004.8
2017-09-19T06:12:30.215Z,1004.8
2017-09-19T06:13:31.953Z,1004.8
2017-09-19T06:14:33.730Z,1004.9
2017-09-19T06:15:35.469Z,1004.8
2017-09-19T06:16:37.086Z,1004.9
2017-09-19T06:17:38.831Z,1004.9
2017-09-19T06:18:40.462Z,1004.9
2017-09-19T06:19:42.225Z,1004.9
2017-09-19T06:20:43.838Z,1004.9
2017-09-19T06:21:45.580Z,1004.8
2017-09-19T06:22:47.194Z,1004.8
2017-09-19T06:23:48.934Z,1004.9
2017-09-19T06:24:50.610Z,1004.9
2017-09-19T06:25:52.379Z,1004.9
2017-09-19T06:26:53.987Z,1004.9
2017-09-19T06:27:55.767Z,1004.9
2017-09-19T06:28:57.441Z,1004.9
2017-09-19T06:29:59.223Z,1004.9
2017-09-19T06:31:00.849Z,1004.9
2017-09-19T06:32:02.598Z,1004.9
2017-09-19T06:33:04.203Z,1004.9
2017-09-19T06:34:05.965Z,1004.9
2017-09-19T06:35:07.561Z,1004.9
2017-09-19T06:36:09.399Z,1004.9
2017-09-19T06:37:11.050Z,1004.9
2017-09-19T06:38:12.718Z,1005.0
2017-09-19T06:39:14.369Z,1004.9
2017-09-19T06:40:15.947Z,1004.9
2017-09-19T06:41:17.828Z,1004.9
2017-09-19T06:42:19.435Z,1004.9
2017-09-19T06:43:21.182Z,1004.9
2017-09-19T06:44:22.953Z,1004.9
2017-09-19T06:45:24.734Z,1004.9
2017-09-19T06:46:26.394Z,1004.9
2017-09-19T06:47:28.192Z,1004.9
2017-09-19T06:48:29.780Z,1004.9
2017-09-19T06:49:31.564Z,1004.9
2017-09-19T06:50:33.166Z,1004.9
2017-09-19T06:51:34.991Z,1004.9
2017-09-19T06:52:36.647Z,1004.9
2017-09-19T06:53:38.355Z,1004.9
2017-09-19T06:54:40.010Z,1005.0
2017-09-19T06:55:41.917Z,1004.9
2017-09-19T06:56:43.507Z,1004.9
2017-09-19T06:57:45.271Z,1004.9
2017-09-19T06:58:47.013Z,1005.0
2017-09-19T06:59:48.795Z,1005.0
2017-09-19T07:00:50.484Z,1005.0
2017-09-19T07:01:52.315Z,1005.0
2017-09-19T07:02:53.917Z,1004.9
2017-09-19T07:03:55.636Z,1005.0
2017-09-19T07:04:57.255Z,1005.0
2017-09-19T07:05:59.056Z,1005.0
2017-09-19T07:07:00.647Z,1005.0
2017-09-19T07:08:02.485Z,1005.0
2017-09-19T07:09:04.247Z,1005.0
2017-09-19T07:10:06.065Z,1005.0
2017-09-19T07:11:07.712Z,1005.0
2017-09-19T07:12:09.483Z,1005.0
2017-09-19T07:13:11.090Z,1005.0
2017-09-19T07:14:12.823Z,1005.0
2017-09-19T07:15:14.461Z,1005.0
2017-09-19T07:16:16.088Z,1005.0
2017-09-19T07:17:17.701Z,1005.1
2017-09-19T07:18:19.512Z,1005.1
2017-09-19T07:19:21.144Z,1005.1
2017-09-19T07:20:22.950Z,1005.1
2017-09-19T07:21:24.630Z,1005.1
2017-09-19T07:22:26.323Z,1005.1
2017-09-19T07:23:28.039Z,1005.1
2017-09-19T07:24:29.842Z,1005.1
2017-09-19T07:25:31.498Z,1005.2
2017-09-19T07:26:33.282Z,1005.1
2017-09-19T07:27:34.881Z,1005.1
2017-09-19T07:28:36.592Z,1005.1
2017-09-19T07:29:38.196Z,1005.1
2017-09-19T07:30:39.937Z,1005.1
2017-09-19T07:31:41.508Z,1005.1
2017-09-19T07:32:43.280Z,1005.1
2017-09-19T07:33:44.871Z,1005.1
2017-09-19T07:34:46.638Z,1005.2
2017-09-19T07:35:48.328Z,1005.2
2017-09-19T07:36:50.165Z,1005.1
2017-09-19T07:37:51.815Z,1005.2
2017-09-19T07:38:53.444Z,1005.1
2017-09-19T07:39:55.158Z,1005.2
2017-09-19T07:40:57.030Z,1005.2
2017-09-19T07:41:58.624Z,1005.2
2017-09-19T07:43:00.402Z,1005.1
2017-09-19T07:44:02.019Z,1005.2
2017-09-19T07:45:03.763Z,1005.2
2017-09-19T07:46:05.454Z,1005.2
2017-09-19T07:47:09.230Z,1005.2
2017-09-19T07:48:10.878Z,1005.2
2017-09-19T07:49:13.822Z,1005.2
2017-09-19T07:50:15.424Z,1005.3
2017-09-19T07:51:17.058Z,1005.3
2017-09-19T07:52:18.646Z,1005.3
2017-09-19T07:53:20.442Z,1005.3
2017-09-19T07:54:22.029Z,1005.3
2017-09-19T07:55:24.691Z,1005.3
2017-09-19T07:56:26.304Z,1005.3
2017-09-19T07:57:27.984Z,1005.3
2017-09-19T07:58:29.569Z,1005.3
2017-09-19T07:59:31.309Z,1005.4
2017-09-19T08:00:32.887Z,1005.4
2017-09-19T08:01:34.529Z,1005.4
2017-09-19T08:02:36.136Z,1005.4
2017-09-19T08:03:37.878Z,1005.5
2017-09-19T08:04:39.501Z,1005.5
2017-09-19T08:05:41.273Z,1005.5
2017-09-19T08:06:42.874Z,1005.5
2017-09-19T08:07:44.549Z,1005.4
2017-09-19T08:08:46.106Z,1005.4
2017-09-19T08:09:47.823Z,1005.4
2017-09-19T08:10:49.393Z,1005.4
2017-09-19T08:11:51.247Z,1005.6
2017-09-19T08:12:53.484Z,1005.7
2017-09-19T08:13:55.232Z,1005.8
2017-09-19T08:14:57.476Z,1005.8
2017-09-19T08:15:59.677Z,1005.7
2017-09-19T08:17:01.332Z,1005.6
2017-09-19T08:18:02.981Z,1005.5
2017-09-19T08:19:04.570Z,1005.4
2017-09-19T08:20:06.225Z,1005.3
2017-09-19T08:21:07.861Z,1005.3
2017-09-19T08:22:09.461Z,1005.2
2017-09-19T08:23:11.030Z,1005.2
2017-09-19T08:24:12.615Z,1005.2
2017-09-19T08:25:14.237Z,1005.2
2017-09-19T08:26:16.420Z,1005.2
2017-09-19T08:27:18.684Z,1005.1
2017-09-19T08:28:21.059Z,1005.1
2017-09-19T08:29:22.761Z,1005.1
2017-09-19T08:30:24.363Z,1005.2
2017-09-19T08:31:26.010Z,1005.2
2017-09-19T08:32:27.689Z,1005.2
2017-09-19T08:33:29.274Z,1005.2
2017-09-19T08:34:30.992Z,1005.3
2017-09-19T08:35:32.621Z,1005.3
2017-09-19T08:36:34.433Z,1005.3
2017-09-19T08:37:36.021Z,1005.4
2017-09-19T08:38:38.317Z,1005.4
2017-09-19T08:39:40.005Z,1005.4
2017-09-19T08:40:42.297Z,1005.5
2017-09-19T08:41:44.027Z,1005.5
2017-09-19T08:42:46.126Z,1005.5
2017-09-19T08:43:47.713Z,1005.5
2017-09-19T08:44:49.435Z,1005.4
2017-09-19T08:45:51.141Z,1005.5
2017-09-19T08:46:52.734Z,1005.4
2017-09-19T08:47:54.377Z,1005.5
2017-09-19T08:48:56.019Z,1005.5
2017-09-19T08:49:57.540Z,1005.5
2017-09-19T08:50:59.899Z,1005.4
2017-09-19T08:52:01.575Z,1005.4
2017-09-19T08:53:03.775Z,1005.5
2017-09-19T08:54:06.022Z,1005.6
2017-09-19T08:55:07.891Z,1005.5
2017-09-19T08:56:09.599Z,1005.5
2017-09-19T08:57:11.218Z,1005.5
2017-09-19T08:58:13.179Z,1005.5
2017-09-19T08:59:14.814Z,1005.5
2017-09-19T09:00:16.771Z,1005.5
2017-09-19T09:01:18.510Z,1005.4
2017-09-19T09:02:20.224Z,1005.4
2017-09-19T09:03:22.065Z,1005.4
2017-09-19T09:04:23.711Z,1005.6
2017-09-19T09:05:25.246Z,1005.6
2017-09-19T09:06:27.621Z,1005.6
2017-09-19T09:07:29.173Z,1005.6
2017-09-19T09:08:30.678Z,1005.6
2017-09-19T09:09:32.309Z,1005.6
2017-09-19T09:10:33.803Z,1005.5
2017-09-19T09:11:36.407Z,1005.5
2017-09-19T09:12:37.992Z,1005.5
2017-09-19T09:13:39.715Z,1005.5
2017-09-19T09:14:41.253Z,1005.6
2017-09-19T09:15:43.095Z,1005.6
2017-09-19T09:16:44.903Z,1005.6
2017-09-19T09:17:46.812Z,1005.6
2017-09-19T09:18:48.397Z,1005.6
2017-09-19T09:19:51.285Z,1005.6
2017-09-19T09:20:52.804Z,1005.7
2017-09-19T09:21:54.488Z,1005.7
2017-09-19T09:22:56.149Z,1005.7
2017-09-19T09:23:58.344Z,1005.7
2017-09-19T09:24:59.927Z,1005.7
2017-09-19T09:26:01.944Z,1005.7
2017-09-19T09:27:03.448Z,1005.7
2017-09-19T09:28:05.006Z,1005.7
2017-09-19T09:29:06.543Z,1005.7
2017-09-19T09:30:08.169Z,1005.7
2017-09-19T09:31:09.716Z,1005.6
2017-09-19T09:32:11.347Z,1005.6
2017-09-19T09:33:12.976Z,1005.7
2017-09-19T09:34:14.834Z,1005.7
2017-09-19T09:35:16.342Z,1005.7
2017-09-19T09:36:18.881Z,1005.7
2017-09-19T09:37:20.413Z,1005.6
2017-09-19T09:38:22.175Z,1005.6
2017-09-19T09:39:23.718Z,1005.7
2017-09-19T09:40:25.278Z,1005.7
2017-09-19T09:41:26.905Z,1005.7
2017-09-19T09:42:28.440Z,1005.7
2017-09-19T09:43:29.968Z,1005.7
2017-09-19T09:44:31.582Z,1005.7
2017-09-19T09:45:33.272Z,1005.8
2017-09-19T09:46:34.748Z,1005.8
2017-09-19T09:47:36.357Z,1005.8
2017-09-19T09:48:38.335Z,1005.8
2017-09-19T09:49:39.853Z,1005.9
2017-09-19T09:50:41.469Z,1006.0
2017-09-19T09:51:43.044Z,1006.0
2017-09-19T09:52:44.661Z,1006.0
2017-09-19T09:53:46.401Z,1006.0
2017-09-19T09:54:47.993Z,1005.9
2017-09-19T09:55:49.938Z,1005.8
2017-09-19T09:56:51.525Z,1005.8
2017-09-19T09:57:53.034Z,1005.8
2017-09-19T09:58:54.590Z,1005.7
2017-09-19T09:59:56.068Z,1005.7
2017-09-19T10:00:58.926Z,1005.7
2017-09-19T10:02:00.909Z,1005.7
2017-09-19T10:03:02.563Z,1005.7
2017-09-19T10:04:04.087Z,1005.8
2017-09-19T10:05:05.683Z,1005.8
2017-09-19T10:06:07.320Z,1005.7
2017-09-19T10:07:09.307Z,1005.7
2017-09-19T10:08:10.816Z,1005.7
2017-09-19T10:09:12.340Z,1005.7
2017-09-19T10:10:14.036Z,1005.8
2017-09-19T10:11:15.634Z,1005.7
2017-09-19T10:12:17.310Z,1005.7
2017-09-19T10:13:19.174Z,1005.7
2017-09-19T10:14:20.962Z,1005.6
2017-09-19T10:15:22.555Z,1005.6
2017-09-19T10:16:24.042Z,1005.6
2017-09-19T10:17:25.703Z,1005.6
2017-09-19T10:18:27.726Z,1005.6
2017-09-19T10:19:29.292Z,1005.6
2017-09-19T10:20:30.851Z,1005.6
2017-09-19T10:21:33.610Z,1005.6
2017-09-19T10:22:35.250Z,1005.6
2017-09-19T10:23:36.795Z,1005.6
2017-09-19T10:24:38.719Z,1005.7
2017-09-19T10:25:40.356Z,1005.7
2017-09-19T10:26:41.846Z,1005.6
2017-09-19T10:27:43.498Z,1005.5
2017-09-19T10:28:45.121Z,1005.6
2017-09-19T10:29:46.913Z,1005.6
2017-09-19T10:30:48.434Z,1005.7
2017-09-19T10:31:50.110Z,1005.7
2017-09-19T10:32:51.670Z,1005.7
2017-09-19T10:33:53.267Z,1005.7
2017-09-19T10:34:54.895Z,1005.7
2017-09-19T10:35:56.536Z,1005.6
2017-09-19T10:36:58.054Z,1005.5
2017-09-19T10:38:00.685Z,1005.5
2017-09-19T10:39:02.390Z,1005.4
2017-09-19T10:40:03.989Z,1005.4
2017-09-19T10:41:05.478Z,1005.5
2017-09-19T10:42:07.042Z,1005.5
2017-09-19T10:43:08.691Z,1005.5
2017-09-19T10:44:10.368Z,1005.5
2017-09-19T10:45:11.843Z,1005.5
2017-09-19T10:46:13.899Z,1005.5
2017-09-19T10:47:15.365Z,1005.5
2017-09-19T10:48:16.999Z,1005.5
2017-09-19T10:49:18.535Z,1005.6
2017-09-19T10:50:20.218Z,1005.6
2017-09-19T10:51:22.150Z,1005.6
2017-09-19T10:52:23.767Z,1005.6
2017-09-19T10:53:25.238Z,1005.7
2017-09-19T10:54:26.885Z,1005.7
2017-09-19T10:55:28.388Z,1005.6
2017-09-19T10:56:30.938Z,1005.6
2017-09-19T10:57:32.420Z,1005.6
2017-09-19T10:58:33.966Z,1005.5
2017-09-19T10:59:35.462Z,1005.5
2017-09-19T11:00:37.051Z,1005.5
2017-09-19T11:01:38.787Z,1005.5
2017-09-19T11:02:40.435Z,1005.5
2017-09-19T11:03:41.986Z,1005.5
2017-09-19T11:04:43.589Z,1005.5
2017-09-19T11:05:45.141Z,1005.5
2017-09-19T11:06:46.734Z,1005.5
2017-09-19T11:07:48.506Z,1005.5
2017-09-19T11:08:51.213Z,1005.6
2017-09-19T11:09:52.942Z,1005.6
2017-09-19T11:10:54.848Z,1005.6
2017-09-19T11:11:56.406Z,1005.6
2017-09-19T11:12:58.015Z,1005.7
2017-09-19T11:13:59.577Z,1005.6
2017-09-19T11:15:01.242Z,1005.6
2017-09-19T11:16:02.760Z,1005.7
2017-09-19T11:17:04.396Z,1005.7
2017-09-19T11:18:05.971Z,1005.7
2017-09-19T11:19:07.586Z,1005.7
2017-09-19T11:20:09.160Z,1005.7
2017-09-19T11:21:10.807Z,1005.7
2017-09-19T11:22:12.275Z,1005.7
2017-09-19T11:23:13.828Z,1005.7
2017-09-19T11:24:15.319Z,1005.6
2017-09-19T11:25:16.977Z,1005.6
2017-09-19T11:26:18.592Z,1005.6
2017-09-19T11:27:20.511Z,1005.6
2017-09-19T11:28:22.146Z,1005.6
2017-09-19T11:29:24.456Z,1005.6
2017-09-19T11:30:25.878Z,1005.6
2017-09-19T11:31:27.429Z,1005.6
2017-09-19T11:32:28.984Z,1005.6
2017-09-19T11:33:30.642Z,1005.6
2017-09-19T11:34:32.215Z,1005.6
2017-09-19T11:35:33.776Z,1005.6
2017-09-19T11:36:35.348Z,1005.7
2017-09-19T11:37:36.903Z,1005.7
2017-09-19T11:38:38.504Z,1005.7
2017-09-19T11:39:40.071Z,1005.6
2017-09-19T11:40:41.549Z,1005.6
2017-09-19T11:41:43.256Z,1005.5
2017-09-19T11:42:44.839Z,1005.5
2017-09-19T11:43:46.466Z,1005.5
2017-09-19T11:44:47.951Z,1005.6
2017-09-19T11:45:49.605Z,1005.6
2017-09-19T11:46:51.106Z,1005.6
2017-09-19T11:47:52.800Z,1005.6
2017-09-19T11:48:54.340Z,1005.6
2017-09-19T11:49:55.888Z,1005.6
2017-09-19T11:50:57.585Z,1005.5
2017-09-19T11:51:59.205Z,1005.5
2017-09-19T11:53:00.741Z,1005.5
2017-09-19T11:54:02.471Z,1005.5
2017-09-19T11:55:04.149Z,1005.5
2017-09-19T11:56:05.807Z,1005.6
2017-09-19T11:57:07.429Z,1005.5
2017-09-19T11:58:08.958Z,1005.5
2017-09-19T11:59:10.556Z,1005.5
2017-09-19T12:00:12.067Z,1005.5
2017-09-19T12:01:13.708Z,1005.6
2017-09-19T12:02:15.297Z,1005.6
2017-09-19T12:03:16.862Z,1005.7
2017-09-19T12:04:18.401Z,1005.7
2017-09-19T12:05:19.951Z,1005.7
2017-09-19T12:06:21.743Z,1005.6
2017-09-19T12:07:24.399Z,1005.7
2017-09-19T12:08:26.035Z,1005.7
2017-09-19T12:09:27.656Z,1005.7
2017-09-19T12:10:29.155Z,1005.7
2017-09-19T12:11:30.820Z,1005.6
2017-09-19T12:12:32.320Z,1005.6
2017-09-19T12:13:33.981Z,1005.6
2017-09-19T12:14:35.524Z,1005.6
2017-09-19T12:15:37.740Z,1005.6
2017-09-19T12:16:39.257Z,1005.6
2017-09-19T12:17:41.425Z,1005.5
2017-09-19T12:18:43.507Z,1005.5
2017-09-19T12:19:45.005Z,1005.5
2017-09-19T12:20:46.518Z,1005.5
2017-09-19T12:21:48.182Z,1005.5
2017-09-19T12:22:50.063Z,1005.5
2017-09-19T12:23:51.636Z,1005.5
2017-09-19T12:24:53.562Z,1005.5
2017-09-19T12:25:55.148Z,1005.5
2017-09-19T12:26:56.696Z,1005.4
2017-09-19T12:27:59.105Z,1005.4
2017-09-19T12:29:00.668Z,1005.4
2017-09-19T12:30:02.887Z,1005.4
2017-09-19T12:31:04.424Z,1005.4
2017-09-19T12:32:06.049Z,1005.4
2017-09-19T12:33:07.529Z,1005.4
2017-09-19T12:34:09.119Z,1005.4
2017-09-19T12:35:11.631Z,1005.4
2017-09-19T12:36:13.425Z,1005.4
2017-09-19T12:37:15.568Z,1005.3
2017-09-19T12:38:17.549Z,1005.4
2017-09-19T12:39:19.206Z,1005.4
2017-09-19T12:40:20.871Z,1005.4
2017-09-19T12:41:22.378Z,1005.4
2017-09-19T12:42:24.014Z,1005.4
2017-09-19T12:43:25.666Z,1005.4
2017-09-19T12:44:27.988Z,1005.5
2017-09-19T12:45:29.516Z,1005.5
2017-09-19T12:46:31.783Z,1005.6
2017-09-19T12:47:33.302Z,1005.6
2017-09-19T12:48:34.840Z,1005.5
2017-09-19T12:49:36.366Z,1005.5